sensor_id;sensor_type;location;lat;lon;timestamp;P1;durP1;ratioP1;P2;durP2;ratioP2
29314;SDS011;16320;53.954;9.506;2023-07-20T00:00:21;6.38;;;3.42;;
29314;SDS011;16320;53.954;9.506;2023-07-20T00:03:25;4.68;;;3.83;;
29314;SDS011;16320;53.954;9.506;2023-07-20T00:06:30;5.97;;;3.78;;
29314;SDS011;16320;53.954;9.506;2023-07-20T00:12:38;7.63;;;4.63;;
29314;SDS011;16320;53.954;9.506;2023-07-20T00:15:44;7.05;;;5.10;;
29314;SDS011;16320;53.954;9.506;2023-07-20T00:18:48;6.38;;;5.70;;
29314;SDS011;16320;53.954;9.506;2023-07-20T00:21:53;9.13;;;6.35;;
29314;SDS011;16320;53.954;9.506;2023-07-20T00:24:58;8.73;;;7.10;;
29314;SDS011;16320;53.954;9.506;2023-07-20T00:28:03;7.90;;;7.10;;
29314;SDS011;16320;53.954;9.506;2023-07-20T00:31:08;8.43;;;6.60;;
29314;SDS011;16320;53.954;9.506;2023-07-20T00:34:12;11.02;;;7.78;;
29314;SDS011;16320;53.954;9.506;2023-07-20T00:37:17;8.27;;;7.20;;
29314;SDS011;16320;53.954;9.506;2023-07-20T00:40:22;7.65;;;6.65;;
29314;SDS011;16320;53.954;9.506;2023-07-20T00:43:27;8.85;;;7.65;;
29314;SDS011;16320;53.954;9.506;2023-07-20T00:46:31;8.98;;;8.07;;
29314;SDS011;16320;53.954;9.506;2023-07-20T00:49:37;12.30;;;8.30;;
29314;SDS011;16320;53.954;9.506;2023-07-20T00:52:43;7.25;;;5.38;;
29314;SDS011;16320;53.954;9.506;2023-07-20T00:55:48;6.40;;;4.68;;
29314;SDS011;16320;53.954;9.506;2023-07-20T00:58:53;5.03;;;3.92;;
29314;SDS011;16320;53.954;9.506;2023-07-20T01:01:57;6.57;;;4.47;;
29314;SDS011;16320;53.954;9.506;2023-07-20T01:05:02;4.93;;;3.72;;
29314;SDS011;16320;53.954;9.506;2023-07-20T01:11:16;3.80;;;3.42;;
29314;SDS011;16320;53.954;9.506;2023-07-20T01:14:39;5.10;;;4.22;;
29314;SDS011;16320;53.954;9.506;2023-07-20T01:17:45;4.88;;;3.83;;
29314;SDS011;16320;53.954;9.506;2023-07-20T01:20:50;5.68;;;3.80;;
29314;SDS011;16320;53.954;9.506;2023-07-20T01:34:31;8.25;;;4.47;;
29314;SDS011;16320;53.954;9.506;2023-07-20T01:37:39;6.07;;;4.22;;
29314;SDS011;16320;53.954;9.506;2023-07-20T01:40:46;4.65;;;4.20;;
29314;SDS011;16320;53.954;9.506;2023-07-20T01:43:51;5.07;;;3.97;;
29314;SDS011;16320;53.954;9.506;2023-07-20T01:46:56;6.13;;;4.30;;
29314;SDS011;16320;53.954;9.506;2023-07-20T01:50:00;6.47;;;3.38;;
29314;SDS011;16320;53.954;9.506;2023-07-20T01:53:04;4.15;;;3.55;;
29314;SDS011;16320;53.954;9.506;2023-07-20T01:56:08;4.22;;;3.50;;
29314;SDS011;16320;53.954;9.506;2023-07-20T01:59:16;4.10;;;3.40;;
29314;SDS011;16320;53.954;9.506;2023-07-20T02:05:24;3.92;;;2.80;;
29314;SDS011;16320;53.954;9.506;2023-07-20T02:08:29;4.72;;;3.35;;
29314;SDS011;16320;53.954;9.506;2023-07-20T02:11:33;3.90;;;3.50;;
29314;SDS011;16320;53.954;9.506;2023-07-20T02:14:38;4.80;;;3.80;;
29314;SDS011;16320;53.954;9.506;2023-07-20T02:17:42;4.97;;;3.70;;
29314;SDS011;16320;53.954;9.506;2023-07-20T02:20:46;5.40;;;3.60;;
29314;SDS011;16320;53.954;9.506;2023-07-20T02:23:51;5.75;;;3.22;;
29314;SDS011;16320;53.954;9.506;2023-07-20T02:26:55;5.80;;;3.10;;
29314;SDS011;16320;53.954;9.506;2023-07-20T02:30:00;5.68;;;3.40;;
29314;SDS011;16320;53.954;9.506;2023-07-20T02:33:04;3.35;;;3.03;;
29314;SDS011;16320;53.954;9.506;2023-07-20T02:36:10;5.43;;;3.17;;
29314;SDS011;16320;53.954;9.506;2023-07-20T02:39:15;5.18;;;3.67;;
29314;SDS011;16320;53.954;9.506;2023-07-20T02:42:19;5.13;;;3.63;;
29314;SDS011;16320;53.954;9.506;2023-07-20T02:45:26;4.82;;;3.30;;
29314;SDS011;16320;53.954;9.506;2023-07-20T02:48:30;6.75;;;3.40;;
29314;SDS011;16320;53.954;9.506;2023-07-20T02:51:35;6.97;;;3.85;;
29314;SDS011;16320;53.954;9.506;2023-07-20T02:57:43;6.60;;;4.68;;
29314;SDS011;16320;53.954;9.506;2023-07-20T03:00:47;7.57;;;5.22;;
29314;SDS011;16320;53.954;9.506;2023-07-20T03:03:52;6.30;;;5.00;;
29314;SDS011;16320;53.954;9.506;2023-07-20T03:06:56;7.60;;;5.20;;
29314;SDS011;16320;53.954;9.506;2023-07-20T03:10:00;6.82;;;5.38;;
29314;SDS011;16320;53.954;9.506;2023-07-20T03:13:05;6.68;;;5.25;;
29314;SDS011;16320;53.954;9.506;2023-07-20T03:16:10;7.30;;;5.50;;
29314;SDS011;16320;53.954;9.506;2023-07-20T03:19:16;7.03;;;5.80;;
29314;SDS011;16320;53.954;9.506;2023-07-20T03:22:20;10.55;;;6.13;;
29314;SDS011;16320;53.954;9.506;2023-07-20T03:25:25;12.57;;;6.22;;
29314;SDS011;16320;53.954;9.506;2023-07-20T03:28:32;10.27;;;6.50;;
29314;SDS011;16320;53.954;9.506;2023-07-20T03:31:36;11.60;;;6.88;;
29314;SDS011;16320;53.954;9.506;2023-07-20T03:34:40;9.88;;;6.28;;
29314;SDS011;16320;53.954;9.506;2023-07-20T03:37:45;15.38;;;6.75;;
29314;SDS011;16320;53.954;9.506;2023-07-20T03:40:53;8.23;;;6.25;;
29314;SDS011;16320;53.954;9.506;2023-07-20T03:44:01;15.85;;;6.38;;
29314;SDS011;16320;53.954;9.506;2023-07-20T03:47:06;9.50;;;6.03;;
29314;SDS011;16320;53.954;9.506;2023-07-20T03:50:10;8.23;;;6.03;;
29314;SDS011;16320;53.954;9.506;2023-07-20T03:53:15;8.93;;;5.50;;
29314;SDS011;16320;53.954;9.506;2023-07-20T03:56:21;10.13;;;6.15;;
29314;SDS011;16320;53.954;9.506;2023-07-20T03:59:26;9.32;;;6.43;;
29314;SDS011;16320;53.954;9.506;2023-07-20T04:02:30;10.57;;;5.93;;
29314;SDS011;16320;53.954;9.506;2023-07-20T04:05:35;9.05;;;6.18;;
29314;SDS011;16320;53.954;9.506;2023-07-20T04:08:39;8.25;;;6.85;;
29314;SDS011;16320;53.954;9.506;2023-07-20T04:11:43;8.60;;;6.68;;
29314;SDS011;16320;53.954;9.506;2023-07-20T04:14:47;14.02;;;6.70;;
29314;SDS011;16320;53.954;9.506;2023-07-20T04:17:52;12.93;;;7.47;;
29314;SDS011;16320;53.954;9.506;2023-07-20T04:20:56;12.73;;;7.22;;
29314;SDS011;16320;53.954;9.506;2023-07-20T04:24:01;14.00;;;7.30;;
29314;SDS011;16320;53.954;9.506;2023-07-20T04:27:05;11.60;;;7.68;;
29314;SDS011;16320;53.954;9.506;2023-07-20T04:30:11;11.30;;;7.93;;
29314;SDS011;16320;53.954;9.506;2023-07-20T04:33:16;14.13;;;7.43;;
29314;SDS011;16320;53.954;9.506;2023-07-20T04:36:22;8.30;;;6.50;;
29314;SDS011;16320;53.954;9.506;2023-07-20T04:39:27;11.73;;;5.70;;
29314;SDS011;16320;53.954;9.506;2023-07-20T04:42:34;9.60;;;5.18;;
29314;SDS011;16320;53.954;9.506;2023-07-20T04:45:39;9.23;;;4.78;;
29314;SDS011;16320;53.954;9.506;2023-07-20T04:48:44;7.18;;;3.97;;
29314;SDS011;16320;53.954;9.506;2023-07-20T04:51:48;7.63;;;4.00;;
29314;SDS011;16320;53.954;9.506;2023-07-20T04:54:53;9.82;;;3.67;;
29314;SDS011;16320;53.954;9.506;2023-07-20T04:57:57;4.78;;;3.47;;
29314;SDS011;16320;53.954;9.506;2023-07-20T05:01:02;8.32;;;3.35;;
29314;SDS011;16320;53.954;9.506;2023-07-20T05:04:06;5.80;;;2.80;;
29314;SDS011;16320;53.954;9.506;2023-07-20T05:07:12;5.20;;;2.97;;
29314;SDS011;16320;53.954;9.506;2023-07-20T05:10:16;4.20;;;2.88;;
29314;SDS011;16320;53.954;9.506;2023-07-20T05:13:21;5.47;;;3.03;;
29314;SDS011;16320;53.954;9.506;2023-07-20T05:16:25;4.50;;;3.50;;
29314;SDS011;16320;53.954;9.506;2023-07-20T05:19:30;3.92;;;2.90;;
29314;SDS011;16320;53.954;9.506;2023-07-20T05:22:34;3.80;;;3.05;;
29314;SDS011;16320;53.954;9.506;2023-07-20T05:25:39;5.50;;;3.10;;
29314;SDS011;16320;53.954;9.506;2023-07-20T05:28:44;4.72;;;2.70;;
29314;SDS011;16320;53.954;9.506;2023-07-20T05:31:49;8.82;;;3.80;;
29314;SDS011;16320;53.954;9.506;2023-07-20T05:34:53;6.93;;;2.88;;
29314;SDS011;16320;53.954;9.506;2023-07-20T05:37:58;8.75;;;2.88;;
29314;SDS011;16320;53.954;9.506;2023-07-20T05:41:02;6.43;;;2.85;;
29314;SDS011;16320;53.954;9.506;2023-07-20T05:44:07;4.22;;;2.92;;
29314;SDS011;16320;53.954;9.506;2023-07-20T05:47:11;7.00;;;2.50;;
29314;SDS011;16320;53.954;9.506;2023-07-20T05:50:16;8.02;;;2.65;;
29314;SDS011;16320;53.954;9.506;2023-07-20T05:53:21;7.28;;;2.78;;
29314;SDS011;16320;53.954;9.506;2023-07-20T05:56:25;8.55;;;2.50;;
29314;SDS011;16320;53.954;9.506;2023-07-20T05:59:30;10.48;;;2.50;;
29314;SDS011;16320;53.954;9.506;2023-07-20T06:02:35;4.75;;;2.25;;
29314;SDS011;16320;53.954;9.506;2023-07-20T06:05:40;4.90;;;2.67;;
29314;SDS011;16320;53.954;9.506;2023-07-20T06:08:45;9.65;;;2.10;;
29314;SDS011;16320;53.954;9.506;2023-07-20T06:11:50;8.15;;;2.72;;
29314;SDS011;16320;53.954;9.506;2023-07-20T06:14:54;4.75;;;2.30;;
29314;SDS011;16320;53.954;9.506;2023-07-20T06:17:59;3.78;;;1.77;;
29314;SDS011;16320;53.954;9.506;2023-07-20T06:21:04;6.78;;;2.30;;
29314;SDS011;16320;53.954;9.506;2023-07-20T06:24:09;9.48;;;2.95;;
29314;SDS011;16320;53.954;9.506;2023-07-20T06:27:14;5.63;;;2.05;;
29314;SDS011;16320;53.954;9.506;2023-07-20T06:30:18;8.90;;;2.33;;
29314;SDS011;16320;53.954;9.506;2023-07-20T06:33:23;9.13;;;1.80;;
29314;SDS011;16320;53.954;9.506;2023-07-20T06:36:28;9.35;;;2.47;;
29314;SDS011;16320;53.954;9.506;2023-07-20T06:39:33;5.05;;;2.20;;
29314;SDS011;16320;53.954;9.506;2023-07-20T06:42:40;8.32;;;2.13;;
29314;SDS011;16320;53.954;9.506;2023-07-20T06:45:54;9.75;;;2.75;;
29314;SDS011;16320;53.954;9.506;2023-07-20T06:48:59;6.60;;;2.20;;
29314;SDS011;16320;53.954;9.506;2023-07-20T06:52:06;7.18;;;2.70;;
29314;SDS011;16320;53.954;9.506;2023-07-20T06:55:11;5.38;;;2.22;;
29314;SDS011;16320;53.954;9.506;2023-07-20T06:58:16;12.75;;;2.75;;
29314;SDS011;16320;53.954;9.506;2023-07-20T07:01:22;5.13;;;1.95;;
29314;SDS011;16320;53.954;9.506;2023-07-20T07:04:28;6.75;;;2.58;;
29314;SDS011;16320;53.954;9.506;2023-07-20T07:07:33;7.35;;;2.30;;
29314;SDS011;16320;53.954;9.506;2023-07-20T07:10:38;5.18;;;2.17;;
29314;SDS011;16320;53.954;9.506;2023-07-20T07:13:43;4.45;;;1.70;;
29314;SDS011;16320;53.954;9.506;2023-07-20T07:16:50;6.03;;;1.60;;
29314;SDS011;16320;53.954;9.506;2023-07-20T07:19:55;10.15;;;1.73;;
29314;SDS011;16320;53.954;9.506;2023-07-20T07:23:01;8.95;;;1.90;;
29314;SDS011;16320;53.954;9.506;2023-07-20T07:26:06;10.65;;;1.80;;
29314;SDS011;16320;53.954;9.506;2023-07-20T07:29:11;5.07;;;1.58;;
29314;SDS011;16320;53.954;9.506;2023-07-20T07:32:16;6.65;;;1.20;;
29314;SDS011;16320;53.954;9.506;2023-07-20T07:35:20;13.82;;;2.20;;
29314;SDS011;16320;53.954;9.506;2023-07-20T07:38:25;4.57;;;1.33;;
29314;SDS011;16320;53.954;9.506;2023-07-20T07:41:34;8.55;;;1.77;;
29314;SDS011;16320;53.954;9.506;2023-07-20T07:44:39;5.88;;;0.80;;
29314;SDS011;16320;53.954;9.506;2023-07-20T07:47:43;5.68;;;0.98;;
29314;SDS011;16320;53.954;9.506;2023-07-20T07:50:48;5.35;;;0.70;;
29314;SDS011;16320;53.954;9.506;2023-07-20T07:53:56;2.75;;;0.77;;
29314;SDS011;16320;53.954;9.506;2023-07-20T07:57:00;3.67;;;0.75;;
29314;SDS011;16320;53.954;9.506;2023-07-20T08:00:05;4.95;;;0.70;;
29314;SDS011;16320;53.954;9.506;2023-07-20T08:03:14;6.60;;;1.00;;
29314;SDS011;16320;53.954;9.506;2023-07-20T08:06:19;3.30;;;0.55;;
29314;SDS011;16320;53.954;9.506;2023-07-20T08:09:24;3.40;;;0.70;;
29314;SDS011;16320;53.954;9.506;2023-07-20T08:12:29;4.43;;;0.73;;
29314;SDS011;16320;53.954;9.506;2023-07-20T08:15:34;6.38;;;0.95;;
29314;SDS011;16320;53.954;9.506;2023-07-20T08:18:39;10.57;;;1.08;;
29314;SDS011;16320;53.954;9.506;2023-07-20T08:21:44;3.47;;;0.60;;
29314;SDS011;16320;53.954;9.506;2023-07-20T08:27:53;6.00;;;0.73;;
29314;SDS011;16320;53.954;9.506;2023-07-20T08:30:59;3.92;;;0.80;;
29314;SDS011;16320;53.954;9.506;2023-07-20T08:34:03;0.70;;;0.40;;
29314;SDS011;16320;53.954;9.506;2023-07-20T08:37:23;6.03;;;0.82;;
29314;SDS011;16320;53.954;9.506;2023-07-20T08:40:27;4.65;;;0.70;;
29314;SDS011;16320;53.954;9.506;2023-07-20T08:43:33;3.40;;;0.68;;
29314;SDS011;16320;53.954;9.506;2023-07-20T08:46:40;4.18;;;0.88;;
29314;SDS011;16320;53.954;9.506;2023-07-20T08:49:48;3.67;;;1.20;;
29314;SDS011;16320;53.954;9.506;2023-07-20T08:52:53;4.78;;;0.80;;
29314;SDS011;16320;53.954;9.506;2023-07-20T08:56:00;4.18;;;1.05;;
29314;SDS011;16320;53.954;9.506;2023-07-20T08:59:08;4.68;;;1.05;;
29314;SDS011;16320;53.954;9.506;2023-07-20T09:02:15;8.48;;;1.00;;
29314;SDS011;16320;53.954;9.506;2023-07-20T09:05:23;5.22;;;0.93;;
29314;SDS011;16320;53.954;9.506;2023-07-20T09:08:31;3.78;;;0.73;;
29314;SDS011;16320;53.954;9.506;2023-07-20T09:11:36;5.65;;;0.60;;
29314;SDS011;16320;53.954;9.506;2023-07-20T09:14:42;3.65;;;0.80;;
29314;SDS011;16320;53.954;9.506;2023-07-20T09:17:48;4.45;;;0.80;;
29314;SDS011;16320;53.954;9.506;2023-07-20T09:20:58;2.70;;;0.65;;
29314;SDS011;16320;53.954;9.506;2023-07-20T09:24:08;0.82;;;0.45;;
29314;SDS011;16320;53.954;9.506;2023-07-20T09:27:13;2.80;;;0.50;;
29314;SDS011;16320;53.954;9.506;2023-07-20T09:30:18;2.55;;;0.60;;
29314;SDS011;16320;53.954;9.506;2023-07-20T09:33:33;3.83;;;0.70;;
29314;SDS011;16320;53.954;9.506;2023-07-20T09:37:04;7.00;;;0.85;;
29314;SDS011;16320;53.954;9.506;2023-07-20T09:40:10;6.05;;;1.25;;
29314;SDS011;16320;53.954;9.506;2023-07-20T09:43:18;3.60;;;0.90;;
29314;SDS011;16320;53.954;9.506;2023-07-20T09:46:40;5.80;;;0.90;;
29314;SDS011;16320;53.954;9.506;2023-07-20T09:49:59;8.90;;;1.10;;
29314;SDS011;16320;53.954;9.506;2023-07-20T09:53:06;4.38;;;1.08;;
29314;SDS011;16320;53.954;9.506;2023-07-20T09:56:16;4.38;;;0.50;;
29314;SDS011;16320;53.954;9.506;2023-07-20T09:59:25;5.40;;;0.47;;
29314;SDS011;16320;53.954;9.506;2023-07-20T10:02:32;3.75;;;0.50;;
29314;SDS011;16320;53.954;9.506;2023-07-20T10:05:47;4.85;;;0.60;;
29314;SDS011;16320;53.954;9.506;2023-07-20T10:09:00;4.95;;;0.32;;
29314;SDS011;16320;53.954;9.506;2023-07-20T10:12:10;9.73;;;0.75;;
29314;SDS011;16320;53.954;9.506;2023-07-20T10:15:23;1.13;;;0.60;;
29314;SDS011;16320;53.954;9.506;2023-07-20T10:18:55;6.45;;;0.68;;
29314;SDS011;16320;53.954;9.506;2023-07-20T10:22:27;2.53;;;0.50;;
29314;SDS011;16320;53.954;9.506;2023-07-20T10:25:45;2.85;;;0.98;;
29314;SDS011;16320;53.954;9.506;2023-07-20T10:28:51;1.77;;;0.50;;
29314;SDS011;16320;53.954;9.506;2023-07-20T10:31:56;2.05;;;0.75;;
29314;SDS011;16320;53.954;9.506;2023-07-20T10:35:01;3.45;;;0.95;;
29314;SDS011;16320;53.954;9.506;2023-07-20T10:38:18;3.45;;;0.88;;
29314;SDS011;16320;53.954;9.506;2023-07-20T10:41:37;4.60;;;1.23;;
29314;SDS011;16320;53.954;9.506;2023-07-20T10:44:44;7.85;;;1.35;;
29314;SDS011;16320;53.954;9.506;2023-07-20T10:47:50;6.03;;;0.90;;
29314;SDS011;16320;53.954;9.506;2023-07-20T10:57:32;3.72;;;1.35;;
29314;SDS011;16320;53.954;9.506;2023-07-20T11:00:54;5.07;;;1.00;;
29314;SDS011;16320;53.954;9.506;2023-07-20T11:04:08;4.90;;;0.90;;
29314;SDS011;16320;53.954;9.506;2023-07-20T11:07:35;7.45;;;1.10;;
29314;SDS011;16320;53.954;9.506;2023-07-20T11:10:45;5.95;;;1.13;;
29314;SDS011;16320;53.954;9.506;2023-07-20T11:13:56;5.45;;;0.90;;
29314;SDS011;16320;53.954;9.506;2023-07-20T11:17:16;4.57;;;0.88;;
29314;SDS011;16320;53.954;9.506;2023-07-20T11:20:28;5.57;;;1.05;;
29314;SDS011;16320;53.954;9.506;2023-07-20T11:23:33;4.63;;;1.27;;
29314;SDS011;16320;53.954;9.506;2023-07-20T11:27:12;3.22;;;0.80;;
29314;SDS011;16320;53.954;9.506;2023-07-20T11:30:15;5.40;;;0.70;;
29314;SDS011;16320;53.954;9.506;2023-07-20T11:33:20;4.57;;;0.70;;
29314;SDS011;16320;53.954;9.506;2023-07-20T11:36:24;6.18;;;1.35;;
29314;SDS011;16320;53.954;9.506;2023-07-20T11:39:32;1.95;;;0.88;;
29314;SDS011;16320;53.954;9.506;2023-07-20T11:42:37;2.95;;;0.60;;
29314;SDS011;16320;53.954;9.506;2023-07-20T11:45:45;5.25;;;0.88;;
29314;SDS011;16320;53.954;9.506;2023-07-20T11:48:55;6.97;;;0.80;;
29314;SDS011;16320;53.954;9.506;2023-07-20T11:52:06;3.42;;;0.50;;
29314;SDS011;16320;53.954;9.506;2023-07-20T11:55:13;7.20;;;0.75;;
29314;SDS011;16320;53.954;9.506;2023-07-20T11:58:18;5.05;;;0.70;;
29314;SDS011;16320;53.954;9.506;2023-07-20T12:01:23;6.22;;;1.13;;
29314;SDS011;16320;53.954;9.506;2023-07-20T12:04:27;5.10;;;0.90;;
29314;SDS011;16320;53.954;9.506;2023-07-20T12:07:36;3.15;;;0.80;;
29314;SDS011;16320;53.954;9.506;2023-07-20T12:10:41;4.45;;;1.00;;
29314;SDS011;16320;53.954;9.506;2023-07-20T12:13:47;7.50;;;1.17;;
29314;SDS011;16320;53.954;9.506;2023-07-20T12:16:52;5.60;;;0.95;;
29314;SDS011;16320;53.954;9.506;2023-07-20T12:19:59;4.45;;;0.73;;
29314;SDS011;16320;53.954;9.506;2023-07-20T12:23:12;5.63;;;0.82;;
29314;SDS011;16320;53.954;9.506;2023-07-20T12:26:18;7.32;;;0.65;;
29314;SDS011;16320;53.954;9.506;2023-07-20T12:29:28;4.38;;;0.75;;
29314;SDS011;16320;53.954;9.506;2023-07-20T12:32:32;3.75;;;0.98;;
29314;SDS011;16320;53.954;9.506;2023-07-20T12:35:37;5.57;;;1.20;;
29314;SDS011;16320;53.954;9.506;2023-07-20T12:38:42;9.90;;;1.05;;
29314;SDS011;16320;53.954;9.506;2023-07-20T12:41:47;3.85;;;0.73;;
29314;SDS011;16320;53.954;9.506;2023-07-20T12:44:53;1.83;;;0.40;;
29314;SDS011;16320;53.954;9.506;2023-07-20T12:47:59;3.95;;;0.82;;
29314;SDS011;16320;53.954;9.506;2023-07-20T12:51:04;1.60;;;0.57;;
29314;SDS011;16320;53.954;9.506;2023-07-20T12:54:08;2.13;;;0.60;;
29314;SDS011;16320;53.954;9.506;2023-07-20T12:57:14;1.50;;;0.50;;
29314;SDS011;16320;53.954;9.506;2023-07-20T13:00:19;2.45;;;0.50;;
29314;SDS011;16320;53.954;9.506;2023-07-20T13:03:29;2.75;;;0.43;;
29314;SDS011;16320;53.954;9.506;2023-07-20T13:06:37;2.22;;;0.60;;
29314;SDS011;16320;53.954;9.506;2023-07-20T13:12:53;3.10;;;0.43;;
29314;SDS011;16320;53.954;9.506;2023-07-20T13:15:58;3.25;;;0.50;;
29314;SDS011;16320;53.954;9.506;2023-07-20T13:19:03;3.00;;;0.52;;
29314;SDS011;16320;53.954;9.506;2023-07-20T13:22:08;3.22;;;0.68;;
29314;SDS011;16320;53.954;9.506;2023-07-20T13:25:12;11.50;;;1.02;;
29314;SDS011;16320;53.954;9.506;2023-07-20T13:28:17;1.85;;;0.60;;
29314;SDS011;16320;53.954;9.506;2023-07-20T13:31:22;1.92;;;0.65;;
29314;SDS011;16320;53.954;9.506;2023-07-20T13:34:27;3.30;;;1.00;;
29314;SDS011;16320;53.954;9.506;2023-07-20T13:37:34;2.72;;;0.60;;
29314;SDS011;16320;53.954;9.506;2023-07-20T13:40:40;7.40;;;1.05;;
29314;SDS011;16320;53.954;9.506;2023-07-20T13:43:44;5.53;;;1.45;;
29314;SDS011;16320;53.954;9.506;2023-07-20T13:46:50;7.65;;;1.02;;
29314;SDS011;16320;53.954;9.506;2023-07-20T13:49:54;1.75;;;0.43;;
29314;SDS011;16320;53.954;9.506;2023-07-20T13:53:02;2.47;;;0.52;;
29314;SDS011;16320;53.954;9.506;2023-07-20T13:56:10;5.55;;;0.90;;
29314;SDS011;16320;53.954;9.506;2023-07-20T13:59:18;5.32;;;0.82;;
29314;SDS011;16320;53.954;9.506;2023-07-20T14:02:23;3.63;;;0.73;;
29314;SDS011;16320;53.954;9.506;2023-07-20T14:05:31;3.00;;;0.70;;
29314;SDS011;16320;53.954;9.506;2023-07-20T14:08:38;2.65;;;0.80;;
29314;SDS011;16320;53.954;9.506;2023-07-20T14:11:43;5.50;;;1.10;;
29314;SDS011;16320;53.954;9.506;2023-07-20T14:14:51;2.20;;;0.70;;
29314;SDS011;16320;53.954;9.506;2023-07-20T14:17:55;4.07;;;0.82;;
29314;SDS011;16320;53.954;9.506;2023-07-20T14:20:59;5.00;;;1.13;;
29314;SDS011;16320;53.954;9.506;2023-07-20T14:24:06;6.70;;;1.45;;
29314;SDS011;16320;53.954;9.506;2023-07-20T14:27:13;5.65;;;0.65;;
29314;SDS011;16320;53.954;9.506;2023-07-20T14:30:17;5.40;;;0.90;;
29314;SDS011;16320;53.954;9.506;2023-07-20T14:33:23;2.25;;;0.63;;
29314;SDS011;16320;53.954;9.506;2023-07-20T14:36:28;5.53;;;0.90;;
29314;SDS011;16320;53.954;9.506;2023-07-20T14:39:33;3.03;;;0.80;;
29314;SDS011;16320;53.954;9.506;2023-07-20T14:42:39;4.72;;;0.88;;
29314;SDS011;16320;53.954;9.506;2023-07-20T14:45:43;8.02;;;1.25;;
29314;SDS011;16320;53.954;9.506;2023-07-20T14:48:49;2.95;;;0.80;;
29314;SDS011;16320;53.954;9.506;2023-07-20T14:51:55;2.00;;;1.08;;
29314;SDS011;16320;53.954;9.506;2023-07-20T14:55:04;5.88;;;0.80;;
29314;SDS011;16320;53.954;9.506;2023-07-20T14:58:09;3.13;;;0.88;;
29314;SDS011;16320;53.954;9.506;2023-07-20T15:01:15;4.28;;;1.10;;
29314;SDS011;16320;53.954;9.506;2023-07-20T15:04:19;4.45;;;0.82;;
29314;SDS011;16320;53.954;9.506;2023-07-20T15:07:23;3.75;;;0.70;;
29314;SDS011;16320;53.954;9.506;2023-07-20T15:10:28;4.50;;;1.30;;
29314;SDS011;16320;53.954;9.506;2023-07-20T15:13:34;8.13;;;1.35;;
29314;SDS011;16320;53.954;9.506;2023-07-20T15:16:56;3.88;;;1.13;;
29314;SDS011;16320;53.954;9.506;2023-07-20T15:20:01;7.20;;;1.25;;
29314;SDS011;16320;53.954;9.506;2023-07-20T15:23:09;6.10;;;1.35;;
29314;SDS011;16320;53.954;9.506;2023-07-20T15:26:14;5.65;;;1.00;;
29314;SDS011;16320;53.954;9.506;2023-07-20T15:29:18;4.75;;;0.98;;
29314;SDS011;16320;53.954;9.506;2023-07-20T15:32:26;3.67;;;0.90;;
29314;SDS011;16320;53.954;9.506;2023-07-20T15:35:31;6.88;;;1.08;;
29314;SDS011;16320;53.954;9.506;2023-07-20T15:38:36;5.63;;;1.35;;
29314;SDS011;16320;53.954;9.506;2023-07-20T15:41:47;4.03;;;0.90;;
29314;SDS011;16320;53.954;9.506;2023-07-20T15:44:52;5.75;;;0.98;;
29314;SDS011;16320;53.954;9.506;2023-07-20T15:47:57;7.50;;;1.52;;
29314;SDS011;16320;53.954;9.506;2023-07-20T15:51:02;5.28;;;0.80;;
29314;SDS011;16320;53.954;9.506;2023-07-20T15:54:09;4.38;;;1.00;;
29314;SDS011;16320;53.954;9.506;2023-07-20T15:57:14;1.88;;;0.70;;
29314;SDS011;16320;53.954;9.506;2023-07-20T16:00:19;8.02;;;1.45;;
29314;SDS011;16320;53.954;9.506;2023-07-20T16:03:24;3.97;;;1.42;;
29314;SDS011;16320;53.954;9.506;2023-07-20T16:06:29;2.55;;;0.73;;
29314;SDS011;16320;53.954;9.506;2023-07-20T16:09:35;3.22;;;0.80;;
29314;SDS011;16320;53.954;9.506;2023-07-20T16:12:40;7.28;;;0.80;;
29314;SDS011;16320;53.954;9.506;2023-07-20T16:15:45;6.53;;;0.70;;
29314;SDS011;16320;53.954;9.506;2023-07-20T16:18:55;6.63;;;1.05;;
29314;SDS011;16320;53.954;9.506;2023-07-20T16:22:00;7.00;;;0.95;;
29314;SDS011;16320;53.954;9.506;2023-07-20T16:25:05;9.00;;;0.85;;
29314;SDS011;16320;53.954;9.506;2023-07-20T16:28:10;4.65;;;1.00;;
29314;SDS011;16320;53.954;9.506;2023-07-20T16:31:15;4.82;;;0.60;;
29314;SDS011;16320;53.954;9.506;2023-07-20T16:34:20;6.18;;;0.73;;
29314;SDS011;16320;53.954;9.506;2023-07-20T16:37:27;4.28;;;0.90;;
29314;SDS011;16320;53.954;9.506;2023-07-20T16:40:35;2.08;;;0.95;;
29314;SDS011;16320;53.954;9.506;2023-07-20T16:43:43;3.75;;;0.57;;
29314;SDS011;16320;53.954;9.506;2023-07-20T16:46:51;2.80;;;0.52;;
29314;SDS011;16320;53.954;9.506;2023-07-20T16:49:59;4.65;;;1.10;;
29314;SDS011;16320;53.954;9.506;2023-07-20T16:53:04;4.28;;;0.70;;
29314;SDS011;16320;53.954;9.506;2023-07-20T16:56:08;2.70;;;0.52;;
29314;SDS011;16320;53.954;9.506;2023-07-20T16:59:12;3.47;;;0.68;;
29314;SDS011;16320;53.954;9.506;2023-07-20T17:02:18;5.60;;;0.80;;
29314;SDS011;16320;53.954;9.506;2023-07-20T17:05:24;4.38;;;0.77;;
29314;SDS011;16320;53.954;9.506;2023-07-20T17:08:28;4.13;;;0.70;;
29314;SDS011;16320;53.954;9.506;2023-07-20T17:11:32;5.28;;;1.10;;
29314;SDS011;16320;53.954;9.506;2023-07-20T17:14:37;4.88;;;0.77;;
29314;SDS011;16320;53.954;9.506;2023-07-20T17:17:44;2.95;;;0.70;;
29314;SDS011;16320;53.954;9.506;2023-07-20T17:20:49;3.10;;;0.65;;
29314;SDS011;16320;53.954;9.506;2023-07-20T17:23:55;4.47;;;0.80;;
29314;SDS011;16320;53.954;9.506;2023-07-20T17:27:03;1.45;;;0.90;;
29314;SDS011;16320;53.954;9.506;2023-07-20T17:30:11;4.25;;;0.55;;
29314;SDS011;16320;53.954;9.506;2023-07-20T17:33:17;3.17;;;0.52;;
29314;SDS011;16320;53.954;9.506;2023-07-20T17:36:21;3.78;;;0.70;;
29314;SDS011;16320;53.954;9.506;2023-07-20T17:39:30;5.18;;;0.65;;
29314;SDS011;16320;53.954;9.506;2023-07-20T17:42:39;2.50;;;0.60;;
29314;SDS011;16320;53.954;9.506;2023-07-20T17:45:48;3.83;;;0.70;;
29314;SDS011;16320;53.954;9.506;2023-07-20T17:48:58;1.17;;;0.50;;
29314;SDS011;16320;53.954;9.506;2023-07-20T17:52:06;4.03;;;1.08;;
29314;SDS011;16320;53.954;9.506;2023-07-20T17:55:11;2.20;;;0.60;;
29314;SDS011;16320;53.954;9.506;2023-07-20T17:58:15;1.33;;;0.55;;
29314;SDS011;16320;53.954;9.506;2023-07-20T18:01:20;2.15;;;0.63;;
29314;SDS011;16320;53.954;9.506;2023-07-20T18:04:25;2.92;;;0.57;;
29314;SDS011;16320;53.954;9.506;2023-07-20T18:07:29;2.03;;;0.50;;
29314;SDS011;16320;53.954;9.506;2023-07-20T18:10:34;1.85;;;0.80;;
29314;SDS011;16320;53.954;9.506;2023-07-20T18:13:38;3.00;;;0.70;;
29314;SDS011;16320;53.954;9.506;2023-07-20T18:16:43;3.95;;;0.60;;
29314;SDS011;16320;53.954;9.506;2023-07-20T18:19:48;2.33;;;0.80;;
29314;SDS011;16320;53.954;9.506;2023-07-20T18:22:53;2.78;;;0.75;;
29314;SDS011;16320;53.954;9.506;2023-07-20T18:25:57;4.22;;;0.82;;
29314;SDS011;16320;53.954;9.506;2023-07-20T18:29:03;2.78;;;0.80;;
29314;SDS011;16320;53.954;9.506;2023-07-20T18:32:07;1.67;;;0.60;;
29314;SDS011;16320;53.954;9.506;2023-07-20T18:35:11;4.10;;;0.77;;
29314;SDS011;16320;53.954;9.506;2023-07-20T18:38:15;2.00;;;0.90;;
29314;SDS011;16320;53.954;9.506;2023-07-20T18:41:20;1.83;;;0.55;;
29314;SDS011;16320;53.954;9.506;2023-07-20T18:44:27;2.95;;;0.82;;
29314;SDS011;16320;53.954;9.506;2023-07-20T18:47:32;5.05;;;0.98;;
29314;SDS011;16320;53.954;9.506;2023-07-20T18:50:38;6.10;;;1.60;;
29314;SDS011;16320;53.954;9.506;2023-07-20T18:53:42;4.30;;;0.50;;
29314;SDS011;16320;53.954;9.506;2023-07-20T18:56:47;1.67;;;0.68;;
29314;SDS011;16320;53.954;9.506;2023-07-20T18:59:53;1.52;;;0.63;;
29314;SDS011;16320;53.954;9.506;2023-07-20T19:02:58;4.68;;;0.60;;
29314;SDS011;16320;53.954;9.506;2023-07-20T19:06:03;2.13;;;0.90;;
29314;SDS011;16320;53.954;9.506;2023-07-20T19:09:09;2.40;;;1.00;;
29314;SDS011;16320;53.954;9.506;2023-07-20T19:12:13;2.47;;;0.70;;
29314;SDS011;16320;53.954;9.506;2023-07-20T19:15:17;2.00;;;0.70;;
29314;SDS011;16320;53.954;9.506;2023-07-20T19:18:22;1.85;;;0.65;;